sensor_id;sensor_type;location;lat;lon;timestamp;P1;durP1;ratioP1;P2;durP2;ratioP2
80253;SDS011;69563;37.974;23.708;2023-09-19T00:00:20;3.42;;;2.13;;
80253;SDS011;69563;37.974;23.708;2023-09-19T00:02:56;3.40;;;1.98;;
80253;SDS011;69563;37.974;23.708;2023-09-19T00:05:22;3.00;;;1.95;;
80253;SDS011;69563;37.974;23.708;2023-09-19T00:07:52;3.22;;;2.30;;
80253;SDS011;69563;37.974;23.708;2023-09-19T00:10:19;2.97;;;2.20;;
80253;SDS011;69563;37.974;23.708;2023-09-19T00:12:52;3.47;;;2.10;;
80253;SDS011;69563;37.974;23.708;2023-09-19T00:15:24;3.90;;;2.10;;
80253;SDS011;69563;37.974;23.708;2023-09-19T00:17:53;3.85;;;2.40;;
80253;SDS011;69563;37.974;23.708;2023-09-19T00:20:20;3.60;;;2.10;;
80253;SDS011;69563;37.974;23.708;2023-09-19T00:22:48;2.95;;;2.08;;
80253;SDS011;69563;37.974;23.708;2023-09-19T00:25:18;3.83;;;2.20;;
80253;SDS011;69563;37.974;23.708;2023-09-19T00:27:45;3.75;;;2.30;;
80253;SDS011;69563;37.974;23.708;2023-09-19T00:30:16;4.07;;;2.25;;
80253;SDS011;69563;37.974;23.708;2023-09-19T00:32:47;3.35;;;2.10;;
80253;SDS011;69563;37.974;23.708;2023-09-19T00:35:15;3.50;;;2.33;;
80253;SDS011;69563;37.974;23.708;2023-09-19T00:37:41;2.90;;;2.05;;
80253;SDS011;69563;37.974;23.708;2023-09-19T00:40:08;3.70;;;2.30;;
80253;SDS011;69563;37.974;23.708;2023-09-19T00:42:38;3.10;;;2.03;;
80253;SDS011;69563;37.974;23.708;2023-09-19T00:45:06;3.28;;;2.28;;
80253;SDS011;69563;37.974;23.708;2023-09-19T00:47:42;3.30;;;1.95;;
80253;SDS011;69563;37.974;23.708;2023-09-19T00:50:10;2.95;;;2.08;;
80253;SDS011;69563;37.974;23.708;2023-09-19T00:52:39;3.53;;;2.10;;
80253;SDS011;69563;37.974;23.708;2023-09-19T00:55:10;3.15;;;2.10;;
80253;SDS011;69563;37.974;23.708;2023-09-19T00:57:39;3.58;;;2.28;;
80253;SDS011;69563;37.974;23.708;2023-09-19T01:00:06;3.25;;;2.08;;
80253;SDS011;69563;37.974;23.708;2023-09-19T01:02:35;2.95;;;2.00;;
80253;SDS011;69563;37.974;23.708;2023-09-19T01:05:02;2.72;;;1.98;;
80253;SDS011;69563;37.974;23.708;2023-09-19T01:07:30;3.45;;;2.10;;
80253;SDS011;69563;37.974;23.708;2023-09-19T01:09:58;3.53;;;2.10;;
80253;SDS011;69563;37.974;23.708;2023-09-19T01:12:30;3.67;;;2.20;;
80253;SDS011;69563;37.974;23.708;2023-09-19T01:32:01;3.25;;;2.20;;
80253;SDS011;69563;37.974;23.708;2023-09-19T01:37:19;3.45;;;2.33;;
80253;SDS011;69563;37.974;23.708;2023-09-19T01:39:52;2.88;;;2.00;;
80253;SDS011;69563;37.974;23.708;2023-09-19T01:48:07;3.35;;;2.03;;
80253;SDS011;69563;37.974;23.708;2023-09-19T01:51:01;2.83;;;2.00;;
80253;SDS011;69563;37.974;23.708;2023-09-19T01:53:35;3.13;;;2.13;;
80253;SDS011;69563;37.974;23.708;2023-09-19T01:56:08;3.67;;;2.03;;
80253;SDS011;69563;37.974;23.708;2023-09-19T01:58:48;3.47;;;2.15;;
80253;SDS011;69563;37.974;23.708;2023-09-19T02:01:19;3.78;;;2.10;;
80253;SDS011;69563;37.974;23.708;2023-09-19T02:03:49;3.45;;;2.22;;
80253;SDS011;69563;37.974;23.708;2023-09-19T02:06:16;3.75;;;2.13;;
80253;SDS011;69563;37.974;23.708;2023-09-19T02:08:43;3.33;;;2.00;;
80253;SDS011;69563;37.974;23.708;2023-09-19T02:11:13;2.85;;;2.08;;
80253;SDS011;69563;37.974;23.708;2023-09-19T02:13:39;3.53;;;2.10;;
80253;SDS011;69563;37.974;23.708;2023-09-19T02:16:06;3.63;;;2.30;;
80253;SDS011;69563;37.974;23.708;2023-09-19T02:18:32;4.15;;;2.22;;
80253;SDS011;69563;37.974;23.708;2023-09-19T02:21:00;3.42;;;2.33;;
80253;SDS011;69563;37.974;23.708;2023-09-19T02:23:26;2.75;;;1.95;;
80253;SDS011;69563;37.974;23.708;2023-09-19T02:25:53;3.08;;;2.20;;
80253;SDS011;69563;37.974;23.708;2023-09-19T02:28:19;4.32;;;2.30;;
80253;SDS011;69563;37.974;23.708;2023-09-19T02:30:48;3.80;;;2.20;;
80253;SDS011;69563;37.974;23.708;2023-09-19T02:33:15;3.58;;;2.25;;
80253;SDS011;69563;37.974;23.708;2023-09-19T02:35:42;2.90;;;2.05;;
80253;SDS011;69563;37.974;23.708;2023-09-19T02:38:08;3.47;;;2.10;;
80253;SDS011;69563;37.974;23.708;2023-09-19T02:40:36;3.40;;;2.30;;
80253;SDS011;69563;37.974;23.708;2023-09-19T02:43:03;3.63;;;2.22;;
80253;SDS011;69563;37.974;23.708;2023-09-19T02:45:30;3.13;;;2.13;;
80253;SDS011;69563;37.974;23.708;2023-09-19T02:47:56;3.55;;;2.33;;
80253;SDS011;69563;37.974;23.708;2023-09-19T02:50:23;2.85;;;1.98;;
80253;SDS011;69563;37.974;23.708;2023-09-19T02:52:49;3.38;;;2.25;;
80253;SDS011;69563;37.974;23.708;2023-09-19T02:55:18;3.30;;;2.20;;
80253;SDS011;69563;37.974;23.708;2023-09-19T02:57:51;4.15;;;2.33;;
80253;SDS011;69563;37.974;23.708;2023-09-19T03:00:19;3.17;;;2.13;;
80253;SDS011;69563;37.974;23.708;2023-09-19T03:02:46;3.38;;;2.08;;
80253;SDS011;69563;37.974;23.708;2023-09-19T03:05:13;3.67;;;2.17;;
80253;SDS011;69563;37.974;23.708;2023-09-19T03:07:39;4.47;;;2.17;;
80253;SDS011;69563;37.974;23.708;2023-09-19T03:10:05;3.28;;;2.22;;
80253;SDS011;69563;37.974;23.708;2023-09-19T03:12:32;3.55;;;2.30;;
80253;SDS011;69563;37.974;23.708;2023-09-19T03:14:59;3.42;;;2.35;;
80253;SDS011;69563;37.974;23.708;2023-09-19T03:17:25;3.75;;;2.38;;
80253;SDS011;69563;37.974;23.708;2023-09-19T03:19:51;3.13;;;2.17;;
80253;SDS011;69563;37.974;23.708;2023-09-19T03:22:16;2.70;;;2.20;;
80253;SDS011;69563;37.974;23.708;2023-09-19T03:24:42;3.60;;;2.20;;
80253;SDS011;69563;37.974;23.708;2023-09-19T03:27:09;3.80;;;2.10;;
80253;SDS011;69563;37.974;23.708;2023-09-19T03:29:35;4.20;;;2.60;;
80253;SDS011;69563;37.974;23.708;2023-09-19T03:32:01;3.17;;;2.08;;
80253;SDS011;69563;37.974;23.708;2023-09-19T03:34:27;4.25;;;2.38;;
80253;SDS011;69563;37.974;23.708;2023-09-19T03:36:52;3.35;;;2.20;;
80253;SDS011;69563;37.974;23.708;2023-09-19T03:39:18;3.85;;;2.33;;
80253;SDS011;69563;37.974;23.708;2023-09-19T03:41:44;3.75;;;2.22;;
80253;SDS011;69563;37.974;23.708;2023-09-19T03:44:10;4.72;;;2.50;;
80253;SDS011;69563;37.974;23.708;2023-09-19T03:46:36;3.10;;;2.25;;
80253;SDS011;69563;37.974;23.708;2023-09-19T03:49:02;3.42;;;2.25;;
80253;SDS011;69563;37.974;23.708;2023-09-19T03:51:28;3.80;;;2.45;;
80253;SDS011;69563;37.974;23.708;2023-09-19T03:53:54;4.28;;;2.40;;
80253;SDS011;69563;37.974;23.708;2023-09-19T03:56:21;3.70;;;2.40;;
80253;SDS011;69563;37.974;23.708;2023-09-19T03:58:47;4.40;;;2.50;;
80253;SDS011;69563;37.974;23.708;2023-09-19T04:01:12;4.18;;;2.50;;
80253;SDS011;69563;37.974;23.708;2023-09-19T04:03:38;3.42;;;2.40;;
80253;SDS011;69563;37.974;23.708;2023-09-19T04:06:12;3.58;;;2.17;;
80253;SDS011;69563;37.974;23.708;2023-09-19T04:08:38;3.75;;;2.50;;
80253;SDS011;69563;37.974;23.708;2023-09-19T04:11:04;3.90;;;2.22;;
80253;SDS011;69563;37.974;23.708;2023-09-19T04:13:30;4.10;;;2.40;;
80253;SDS011;69563;37.974;23.708;2023-09-19T04:15:56;4.10;;;2.42;;
80253;SDS011;69563;37.974;23.708;2023-09-19T04:18:22;6.03;;;2.50;;
80253;SDS011;69563;37.974;23.708;2023-09-19T04:20:51;3.97;;;2.47;;
80253;SDS011;69563;37.974;23.708;2023-09-19T04:23:18;4.40;;;2.50;;
80253;SDS011;69563;37.974;23.708;2023-09-19T04:25:47;3.60;;;2.33;;
80253;SDS011;69563;37.974;23.708;2023-09-19T04:28:13;3.33;;;2.10;;
80253;SDS011;69563;37.974;23.708;2023-09-19T04:30:40;4.00;;;2.45;;
80253;SDS011;69563;37.974;23.708;2023-09-19T04:33:06;4.20;;;2.25;;
80253;SDS011;69563;37.974;23.708;2023-09-19T04:35:33;5.15;;;2.65;;
80253;SDS011;69563;37.974;23.708;2023-09-19T04:38:00;4.15;;;2.17;;
80253;SDS011;69563;37.974;23.708;2023-09-19T04:40:26;3.97;;;2.30;;
80253;SDS011;69563;37.974;23.708;2023-09-19T04:42:55;3.40;;;2.10;;
80253;SDS011;69563;37.974;23.708;2023-09-19T04:45:24;4.70;;;2.53;;
80253;SDS011;69563;37.974;23.708;2023-09-19T04:47:52;3.90;;;2.33;;
80253;SDS011;69563;37.974;23.708;2023-09-19T04:50:18;3.65;;;2.30;;
80253;SDS011;69563;37.974;23.708;2023-09-19T04:52:46;3.53;;;2.20;;
80253;SDS011;69563;37.974;23.708;2023-09-19T04:55:16;3.50;;;2.00;;
80253;SDS011;69563;37.974;23.708;2023-09-19T04:57:43;4.40;;;2.20;;
80253;SDS011;69563;37.974;23.708;2023-09-19T05:00:11;2.78;;;1.90;;
80253;SDS011;69563;37.974;23.708;2023-09-19T05:02:39;4.03;;;1.88;;
80253;SDS011;69563;37.974;23.708;2023-09-19T05:05:07;2.60;;;1.77;;
80253;SDS011;69563;37.974;23.708;2023-09-19T05:07:33;4.00;;;1.85;;
80253;SDS011;69563;37.974;23.708;2023-09-19T05:10:00;2.78;;;1.83;;
80253;SDS011;69563;37.974;23.708;2023-09-19T05:12:26;2.83;;;1.67;;
80253;SDS011;69563;37.974;23.708;2023-09-19T05:14:52;4.15;;;1.90;;
80253;SDS011;69563;37.974;23.708;2023-09-19T05:17:18;2.25;;;1.70;;
80253;SDS011;69563;37.974;23.708;2023-09-19T05:19:44;2.20;;;1.45;;
80253;SDS011;69563;37.974;23.708;2023-09-19T05:22:11;3.03;;;1.80;;
80253;SDS011;69563;37.974;23.708;2023-09-19T05:24:37;2.25;;;1.40;;
80253;SDS011;69563;37.974;23.708;2023-09-19T05:27:04;2.17;;;1.38;;
80253;SDS011;69563;37.974;23.708;2023-09-19T05:29:32;2.08;;;1.50;;
80253;SDS011;69563;37.974;23.708;2023-09-19T05:31:58;2.80;;;1.50;;
80253;SDS011;69563;37.974;23.708;2023-09-19T05:34:24;2.83;;;1.40;;
80253;SDS011;69563;37.974;23.708;2023-09-19T05:36:55;2.20;;;1.50;;
80253;SDS011;69563;37.974;23.708;2023-09-19T05:39:21;2.60;;;1.52;;
80253;SDS011;69563;37.974;23.708;2023-09-19T05:41:47;1.90;;;1.33;;
80253;SDS011;69563;37.974;23.708;2023-09-19T05:44:13;2.35;;;1.60;;
80253;SDS011;69563;37.974;23.708;2023-09-19T05:46:39;1.90;;;1.30;;
80253;SDS011;69563;37.974;23.708;2023-09-19T05:49:05;1.77;;;1.30;;
80253;SDS011;69563;37.974;23.708;2023-09-19T05:51:31;2.30;;;1.38;;
80253;SDS011;69563;37.974;23.708;2023-09-19T05:53:57;1.92;;;1.38;;
80253;SDS011;69563;37.974;23.708;2023-09-19T05:56:23;1.88;;;1.40;;
80253;SDS011;69563;37.974;23.708;2023-09-19T05:58:49;2.08;;;1.45;;
80253;SDS011;69563;37.974;23.708;2023-09-19T06:01:17;1.58;;;1.38;;
80253;SDS011;69563;37.974;23.708;2023-09-19T06:03:43;1.88;;;1.45;;
80253;SDS011;69563;37.974;23.708;2023-09-19T06:06:08;1.75;;;1.30;;
80253;SDS011;69563;37.974;23.708;2023-09-19T06:08:34;1.75;;;1.40;;
80253;SDS011;69563;37.974;23.708;2023-09-19T06:11:01;2.08;;;1.35;;
80253;SDS011;69563;37.974;23.708;2023-09-19T06:13:27;1.60;;;1.27;;
80253;SDS011;69563;37.974;23.708;2023-09-19T06:15:54;2.03;;;1.40;;
80253;SDS011;69563;37.974;23.708;2023-09-19T06:18:21;1.90;;;1.40;;
80253;SDS011;69563;37.974;23.708;2023-09-19T06:20:51;2.00;;;1.50;;
80253;SDS011;69563;37.974;23.708;2023-09-19T06:23:17;1.85;;;1.30;;
80253;SDS011;69563;37.974;23.708;2023-09-19T06:25:45;1.65;;;1.35;;
80253;SDS011;69563;37.974;23.708;2023-09-19T06:28:10;1.85;;;1.30;;
80253;SDS011;69563;37.974;23.708;2023-09-19T06:30:39;1.80;;;1.30;;
80253;SDS011;69563;37.974;23.708;2023-09-19T06:33:05;1.98;;;1.45;;
80253;SDS011;69563;37.974;23.708;2023-09-19T06:35:34;1.70;;;1.30;;
80253;SDS011;69563;37.974;23.708;2023-09-19T06:38:03;1.65;;;1.25;;
80253;SDS011;69563;37.974;23.708;2023-09-19T06:40:30;2.15;;;1.50;;
80253;SDS011;69563;37.974;23.708;2023-09-19T06:42:56;1.73;;;1.30;;
80253;SDS011;69563;37.974;23.708;2023-09-19T06:45:22;2.05;;;1.38;;
80253;SDS011;69563;37.974;23.708;2023-09-19T06:47:51;2.03;;;1.30;;
80253;SDS011;69563;37.974;23.708;2023-09-19T06:50:18;2.58;;;1.50;;
80253;SDS011;69563;37.974;23.708;2023-09-19T06:52:47;2.15;;;1.30;;
80253;SDS011;69563;37.974;23.708;2023-09-19T06:55:15;2.60;;;1.55;;
80253;SDS011;69563;37.974;23.708;2023-09-19T06:57:42;2.28;;;1.25;;
80253;SDS011;69563;37.974;23.708;2023-09-19T07:00:11;2.33;;;1.40;;
80253;SDS011;69563;37.974;23.708;2023-09-19T07:02:56;2.03;;;1.45;;
80253;SDS011;69563;37.974;23.708;2023-09-19T07:05:32;2.13;;;1.30;;
80253;SDS011;69563;37.974;23.708;2023-09-19T07:08:02;2.03;;;1.40;;
80253;SDS011;69563;37.974;23.708;2023-09-19T07:10:29;2.10;;;1.50;;
80253;SDS011;69563;37.974;23.708;2023-09-19T07:12:56;2.03;;;1.42;;
80253;SDS011;69563;37.974;23.708;2023-09-19T07:15:34;1.65;;;1.30;;
80253;SDS011;69563;37.974;23.708;2023-09-19T07:18:11;2.25;;;1.38;;
80253;SDS011;69563;37.974;23.708;2023-09-19T07:20:39;2.03;;;1.40;;
80253;SDS011;69563;37.974;23.708;2023-09-19T07:23:11;1.77;;;1.40;;
80253;SDS011;69563;37.974;23.708;2023-09-19T07:25:40;1.95;;;1.42;;
80253;SDS011;69563;37.974;23.708;2023-09-19T07:28:06;1.90;;;1.30;;
80253;SDS011;69563;37.974;23.708;2023-09-19T07:30:31;2.30;;;1.40;;
80253;SDS011;69563;37.974;23.708;2023-09-19T07:33:00;2.50;;;1.60;;
80253;SDS011;69563;37.974;23.708;2023-09-19T07:35:27;1.85;;;1.50;;
80253;SDS011;69563;37.974;23.708;2023-09-19T07:37:53;1.65;;;1.38;;
80253;SDS011;69563;37.974;23.708;2023-09-19T07:40:21;2.72;;;1.80;;
80253;SDS011;69563;37.974;23.708;2023-09-19T07:42:48;2.85;;;1.83;;
80253;SDS011;69563;37.974;23.708;2023-09-19T07:45:15;2.30;;;1.55;;
80253;SDS011;69563;37.974;23.708;2023-09-19T07:47:48;4.03;;;2.78;;
80253;SDS011;69563;37.974;23.708;2023-09-19T07:50:19;3.13;;;2.17;;
80253;SDS011;69563;37.974;23.708;2023-09-19T07:52:45;2.70;;;1.80;;
80253;SDS011;69563;37.974;23.708;2023-09-19T07:55:12;3.38;;;2.30;;
80253;SDS011;69563;37.974;23.708;2023-09-19T07:57:41;3.80;;;2.25;;
80253;SDS011;69563;37.974;23.708;2023-09-19T08:00:07;3.67;;;2.17;;
80253;SDS011;69563;37.974;23.708;2023-09-19T08:02:38;2.58;;;1.73;;
80253;SDS011;69563;37.974;23.708;2023-09-19T08:05:07;3.38;;;2.15;;
80253;SDS011;69563;37.974;23.708;2023-09-19T08:07:37;3.10;;;2.10;;
80253;SDS011;69563;37.974;23.708;2023-09-19T08:10:05;3.53;;;2.08;;
80253;SDS011;69563;37.974;23.708;2023-09-19T08:12:40;2.80;;;2.00;;
80253;SDS011;69563;37.974;23.708;2023-09-19T08:15:12;2.85;;;2.05;;
80253;SDS011;69563;37.974;23.708;2023-09-19T08:17:38;2.85;;;2.03;;
80253;SDS011;69563;37.974;23.708;2023-09-19T08:20:04;2.90;;;2.00;;
80253;SDS011;69563;37.974;23.708;2023-09-19T08:22:31;3.10;;;2.20;;
80253;SDS011;69563;37.974;23.708;2023-09-19T08:24:57;2.78;;;2.00;;
80253;SDS011;69563;37.974;23.708;2023-09-19T08:27:23;2.90;;;2.08;;
80253;SDS011;69563;37.974;23.708;2023-09-19T08:29:52;3.10;;;2.30;;
80253;SDS011;69563;37.974;23.708;2023-09-19T08:32:19;3.95;;;2.88;;
80253;SDS011;69563;37.974;23.708;2023-09-19T08:34:49;6.28;;;3.60;;
80253;SDS011;69563;37.974;23.708;2023-09-19T08:37:15;4.88;;;3.60;;
80253;SDS011;69563;37.974;23.708;2023-09-19T08:39:42;6.13;;;4.13;;
80253;SDS011;69563;37.974;23.708;2023-09-19T08:42:08;6.25;;;4.80;;
80253;SDS011;69563;37.974;23.708;2023-09-19T08:44:36;5.78;;;4.50;;
80253;SDS011;69563;37.974;23.708;2023-09-19T08:47:14;6.57;;;5.05;;
80253;SDS011;69563;37.974;23.708;2023-09-19T08:52:56;6.80;;;4.45;;
80253;SDS011;69563;37.974;23.708;2023-09-19T08:55:28;6.88;;;3.90;;
80253;SDS011;69563;37.974;23.708;2023-09-19T08:57:59;6.03;;;3.78;;
80253;SDS011;69563;37.974;23.708;2023-09-19T09:00:27;6.18;;;4.10;;
80253;SDS011;69563;37.974;23.708;2023-09-19T09:02:54;4.97;;;3.50;;
80253;SDS011;69563;37.974;23.708;2023-09-19T09:05:22;5.50;;;3.45;;
80253;SDS011;69563;37.974;23.708;2023-09-19T09:07:49;4.45;;;3.08;;
80253;SDS011;69563;37.974;23.708;2023-09-19T09:10:25;4.45;;;3.15;;
80253;SDS011;69563;37.974;23.708;2023-09-19T09:12:52;4.60;;;3.17;;
80253;SDS011;69563;37.974;23.708;2023-09-19T09:15:21;3.80;;;3.00;;
80253;SDS011;69563;37.974;23.708;2023-09-19T09:17:48;4.18;;;2.90;;
80253;SDS011;69563;37.974;23.708;2023-09-19T09:20:19;4.63;;;2.47;;
80253;SDS011;69563;37.974;23.708;2023-09-19T09:22:51;3.60;;;2.60;;
80253;SDS011;69563;37.974;23.708;2023-09-19T09:25:23;3.70;;;2.50;;
80253;SDS011;69563;37.974;23.708;2023-09-19T09:28:18;3.55;;;2.40;;
80253;SDS011;69563;37.974;23.708;2023-09-19T09:30:46;3.80;;;2.53;;
80253;SDS011;69563;37.974;23.708;2023-09-19T09:33:12;3.20;;;2.25;;
80253;SDS011;69563;37.974;23.708;2023-09-19T09:35:50;4.07;;;2.30;;
80253;SDS011;69563;37.974;23.708;2023-09-19T09:38:25;3.85;;;2.35;;
80253;SDS011;69563;37.974;23.708;2023-09-19T09:40:53;3.13;;;2.05;;
80253;SDS011;69563;37.974;23.708;2023-09-19T09:43:30;3.90;;;2.20;;
80253;SDS011;69563;37.974;23.708;2023-09-19T09:46:07;3.50;;;2.20;;
80253;SDS011;69563;37.974;23.708;2023-09-19T09:48:46;3.45;;;2.10;;
80253;SDS011;69563;37.974;23.708;2023-09-19T09:51:36;3.38;;;2.20;;
80253;SDS011;69563;37.974;23.708;2023-09-19T09:54:16;3.13;;;2.25;;
80253;SDS011;69563;37.974;23.708;2023-09-19T09:56:57;2.78;;;2.05;;
80253;SDS011;69563;37.974;23.708;2023-09-19T10:02:16;3.03;;;1.90;;
80253;SDS011;69563;37.974;23.708;2023-09-19T10:04:49;3.55;;;2.40;;
80253;SDS011;69563;37.974;23.708;2023-09-19T10:07:47;3.20;;;2.20;;
80253;SDS011;69563;37.974;23.708;2023-09-19T10:13:09;3.28;;;2.33;;
80253;SDS011;69563;37.974;23.708;2023-09-19T10:15:44;3.83;;;2.45;;
80253;SDS011;69563;37.974;23.708;2023-09-19T10:18:17;3.90;;;2.63;;
80253;SDS011;69563;37.974;23.708;2023-09-19T10:20:45;4.07;;;2.60;;
80253;SDS011;69563;37.974;23.708;2023-09-19T10:23:14;4.10;;;2.90;;
80253;SDS011;69563;37.974;23.708;2023-09-19T10:25:47;3.67;;;2.70;;
80253;SDS011;69563;37.974;23.708;2023-09-19T10:28:15;3.80;;;2.78;;
80253;SDS011;69563;37.974;23.708;2023-09-19T10:30:45;3.90;;;2.90;;
80253;SDS011;69563;37.974;23.708;2023-09-19T10:33:17;3.95;;;2.88;;
80253;SDS011;69563;37.974;23.708;2023-09-19T10:35:47;4.53;;;2.90;;
80253;SDS011;69563;37.974;23.708;2023-09-19T10:38:19;4.25;;;3.20;;
80253;SDS011;69563;37.974;23.708;2023-09-19T10:40:52;3.88;;;2.97;;
80253;SDS011;69563;37.974;23.708;2023-09-19T10:43:20;4.33;;;3.23;;
80253;SDS011;69563;37.974;23.708;2023-09-19T10:45:55;3.90;;;2.90;;
80253;SDS011;69563;37.974;23.708;2023-09-19T10:48:26;4.67;;;3.67;;
80253;SDS011;69563;37.974;23.708;2023-09-19T10:51:09;4.93;;;3.58;;
80253;SDS011;69563;37.974;23.708;2023-09-19T10:56:21;4.75;;;3.65;;
80253;SDS011;69563;37.974;23.708;2023-09-19T10:59:04;4.80;;;3.75;;
80253;SDS011;69563;37.974;23.708;2023-09-19T11:01:43;5.45;;;4.00;;
80253;SDS011;69563;37.974;23.708;2023-09-19T11:04:22;5.60;;;4.15;;
80253;SDS011;69563;37.974;23.708;2023-09-19T11:15:00;5.57;;;4.05;;
80253;SDS011;69563;37.974;23.708;2023-09-19T11:30:46;4.85;;;3.60;;
80253;SDS011;69563;37.974;23.708;2023-09-19T11:36:04;4.55;;;3.35;;
80253;SDS011;69563;37.974;23.708;2023-09-19T11:43:49;4.13;;;3.00;;
80253;SDS011;69563;37.974;23.708;2023-09-19T11:46:26;4.40;;;3.25;;
80253;SDS011;69563;37.974;23.708;2023-09-19T11:49:04;4.30;;;3.10;;
80253;SDS011;69563;37.974;23.708;2023-09-19T11:51:41;4.28;;;3.08;;
80253;SDS011;69563;37.974;23.708;2023-09-19T11:54:12;4.50;;;2.75;;
80253;SDS011;69563;37.974;23.708;2023-09-19T11:56:53;3.78;;;2.60;;
80253;SDS011;69563;37.974;23.708;2023-09-19T11:59:25;3.90;;;2.80;;
80253;SDS011;69563;37.974;23.708;2023-09-19T12:02:00;4.00;;;2.65;;
80253;SDS011;69563;37.974;23.708;2023-09-19T12:04:41;3.75;;;2.80;;
80253;SDS011;69563;37.974;23.708;2023-09-19T12:07:14;3.30;;;2.55;;
80253;SDS011;69563;37.974;23.708;2023-09-19T12:09:51;3.88;;;2.40;;
80253;SDS011;69563;37.974;23.708;2023-09-19T12:12:29;3.33;;;2.30;;
80253;SDS011;69563;37.974;23.708;2023-09-19T12:14:57;2.78;;;2.10;;
80253;SDS011;69563;37.974;23.708;2023-09-19T12:17:34;3.00;;;2.17;;
80253;SDS011;69563;37.974;23.708;2023-09-19T12:20:04;3.38;;;2.33;;
80253;SDS011;69563;37.974;23.708;2023-09-19T12:22:39;3.50;;;2.30;;
80253;SDS011;69563;37.974;23.708;2023-09-19T12:25:09;2.88;;;2.10;;
80253;SDS011;69563;37.974;23.708;2023-09-19T12:30:09;2.78;;;2.00;;
80253;SDS011;69563;37.974;23.708;2023-09-19T12:32:39;2.70;;;2.10;;
80253;SDS011;69563;37.974;23.708;2023-09-19T12:35:06;2.92;;;2.15;;
80253;SDS011;69563;37.974;23.708;2023-09-19T12:37:51;2.55;;;2.00;;
80253;SDS011;69563;37.974;23.708;2023-09-19T12:40:20;3.20;;;2.08;;
80253;SDS011;69563;37.974;23.708;2023-09-19T12:42:53;3.30;;;2.05;;
80253;SDS011;69563;37.974;23.708;2023-09-19T12:45:27;3.28;;;2.10;;
80253;SDS011;69563;37.974;23.708;2023-09-19T12:51:12;3.47;;;2.20;;
80253;SDS011;69563;37.974;23.708;2023-09-19T12:53:42;5.15;;;3.30;;
80253;SDS011;69563;37.974;23.708;2023-09-19T12:56:15;3.35;;;2.65;;
80253;SDS011;69563;37.974;23.708;2023-09-19T12:58:53;4.70;;;3.47;;
80253;SDS011;69563;37.974;23.708;2023-09-19T13:01:26;5.38;;;4.13;;
80253;SDS011;69563;37.974;23.708;2023-09-19T13:04:14;5.32;;;3.90;;
80253;SDS011;69563;37.974;23.708;2023-09-19T13:06:45;8.30;;;5.95;;
80253;SDS011;69563;37.974;23.708;2023-09-19T13:09:12;5.97;;;4.95;;
80253;SDS011;69563;37.974;23.708;2023-09-19T13:11:39;5.82;;;4.82;;
80253;SDS011;69563;37.974;23.708;2023-09-19T13:14:23;7.20;;;6.03;;
80253;SDS011;69563;37.974;23.708;2023-09-19T13:16:56;6.28;;;5.53;;
80253;SDS011;69563;37.974;23.708;2023-09-19T13:19:39;7.03;;;5.85;;
80253;SDS011;69563;37.974;23.708;2023-09-19T13:25:06;7.32;;;5.28;;
80253;SDS011;69563;37.974;23.708;2023-09-19T13:27:37;7.10;;;6.00;;
80253;SDS011;69563;37.974;23.708;2023-09-19T13:30:02;6.97;;;5.65;;
80253;SDS011;69563;37.974;23.708;2023-09-19T13:32:31;6.28;;;5.38;;
80253;SDS011;69563;37.974;23.708;2023-09-19T13:34:58;6.68;;;5.25;;
80253;SDS011;69563;37.974;23.708;2023-09-19T13:37:23;5.88;;;4.75;;
80253;SDS011;69563;37.974;23.708;2023-09-19T13:39:51;5.55;;;4.63;;
80253;SDS011;69563;37.974;23.708;2023-09-19T13:42:17;5.78;;;4.28;;
80253;SDS011;69563;37.974;23.708;2023-09-19T13:44:43;5.32;;;4.30;;
80253;SDS011;69563;37.974;23.708;2023-09-19T13:47:09;4.30;;;3.55;;
80253;SDS011;69563;37.974;23.708;2023-09-19T13:49:38;4.13;;;3.13;;
80253;SDS011;69563;37.974;23.708;2023-09-19T13:52:04;4.30;;;3.38;;
80253;SDS011;69563;37.974;23.708;2023-09-19T13:54:30;4.10;;;3.03;;
80253;SDS011;69563;37.974;23.708;2023-09-19T13:56:56;4.32;;;3.08;;
80253;SDS011;69563;37.974;23.708;2023-09-19T13:59:23;3.80;;;2.88;;
80253;SDS011;69563;37.974;23.708;2023-09-19T14:01:49;3.75;;;3.00;;
80253;SDS011;69563;37.974;23.708;2023-09-19T14:04:19;3.85;;;2.65;;
80253;SDS011;69563;37.974;23.708;2023-09-19T14:06:46;3.13;;;2.40;;
80253;SDS011;69563;37.974;23.708;2023-09-19T14:09:12;3.00;;;2.40;;
80253;SDS011;69563;37.974;23.708;2023-09-19T14:11:38;3.47;;;2.45;;
80253;SDS011;69563;37.974;23.708;2023-09-19T14:14:04;3.38;;;2.40;;
80253;SDS011;69563;37.974;23.708;2023-09-19T14:16:31;3.20;;;2.22;;
80253;SDS011;69563;37.974;23.708;2023-09-19T14:18:57;3.30;;;2.40;;
80253;SDS011;69563;37.974;23.708;2023-09-19T14:21:26;3.00;;;2.28;;
80253;SDS011;69563;37.974;23.708;2023-09-19T14:23:52;2.78;;;2.20;;
80253;SDS011;69563;37.974;23.708;2023-09-19T14:26:19;2.60;;;2.10;;
80253;SDS011;69563;37.974;23.708;2023-09-19T14:28:45;3.28;;;2.28;;
80253;SDS011;69563;37.974;23.708;2023-09-19T14:31:11;3.72;;;2.28;;
80253;SDS011;69563;37.974;23.708;2023-09-19T14:33:37;3.28;;;2.15;;
80253;SDS011;69563;37.974;23.708;2023-09-19T14:36:03;2.95;;;2.22;;
80253;SDS011;69563;37.974;23.708;2023-09-19T14:38:37;3.03;;;1.90;;
80253;SDS011;69563;37.974;23.708;2023-09-19T14:41:04;2.83;;;1.92;;
80253;SDS011;69563;37.974;23.708;2023-09-19T14:43:31;2.88;;;2.00;;
80253;SDS011;69563;37.974;23.708;2023-09-19T14:45:57;2.60;;;1.98;;
80253;SDS011;69563;37.974;23.708;2023-09-19T14:48:35;2.53;;;1.90;;
80253;SDS011;69563;37.974;23.708;2023-09-19T14:51:01;2.80;;;1.90;;
80253;SDS011;69563;37.974;23.708;2023-09-19T14:53:33;3.40;;;2.00;;
80253;SDS011;69563;37.974;23.708;2023-09-19T14:56:00;3.03;;;2.00;;
80253;SDS011;69563;37.974;23.708;2023-09-19T14:58:28;2.38;;;1.80;;
80253;SDS011;69563;37.974;23.708;2023-09-19T15:01:16;2.95;;;2.00;;
80253;SDS011;69563;37.974;23.708;2023-09-19T15:03:41;3.03;;;2.10;;
80253;SDS011;69563;37.974;23.708;2023-09-19T15:06:08;2.50;;;1.88;;
80253;SDS011;69563;37.974;23.708;2023-09-19T15:08:37;2.75;;;1.70;;
80253;SDS011;69563;37.974;23.708;2023-09-19T15:11:04;2.30;;;1.65;;
80253;SDS011;69563;37.974;23.708;2023-09-19T15:13:34;2.20;;;1.70;;
80253;SDS011;69563;37.974;23.708;2023-09-19T15:16:03;2.00;;;1.70;;
80253;SDS011;69563;37.974;23.708;2023-09-19T15:18:40;2.40;;;1.70;;
80253;SDS011;69563;37.974;23.708;2023-09-19T15:21:10;2.10;;;1.60;;
80253;SDS011;69563;37.974;23.708;2023-09-19T15:23:37;2.30;;;1.60;;
80253;SDS011;69563;37.974;23.708;2023-09-19T15:26:03;2.10;;;1.70;;
80253;SDS011;69563;37.974;23.708;2023-09-19T15:28:30;1.80;;;1.45;;
80253;SDS011;69563;37.974;23.708;2023-09-19T15:31:00;2.05;;;1.63;;
80253;SDS011;69563;37.974;23.708;2023-09-19T15:33:31;2.40;;;1.65;;
80253;SDS011;69563;37.974;23.708;2023-09-19T15:36:04;2.40;;;1.60;;
80253;SDS011;69563;37.974;23.708;2023-09-19T15:39:08;1.95;;;1.50;;
80253;SDS011;69563;37.974;23.708;2023-09-19T15:41:40;2.13;;;1.80;;
80253;SDS011;69563;37.974;23.708;2023-09-19T15:44:13;2.28;;;1.70;;
80253;SDS011;69563;37.974;23.708;2023-09-19T15:46:43;2.95;;;1.77;;
80253;SDS011;69563;37.974;23.708;2023-09-19T15:49:09;3.78;;;2.00;;
80253;SDS011;69563;37.974;23.708;2023-09-19T15:51:35;2.83;;;2.00;;
80253;SDS011;69563;37.974;23.708;2023-09-19T15:54:06;2.60;;;1.80;;
80253;SDS011;69563;37.974;23.708;2023-09-19T15:56:38;2.38;;;1.70;;
80253;SDS011;69563;37.974;23.708;2023-09-19T15:59:06;2.67;;;2.00;;
80253;SDS011;69563;37.974;23.708;2023-09-19T16:01:33;2.70;;;1.90;;